createdAt,value
2018-12-18T00:00:36.837Z,2.55
2018-12-18T00:03:17.272Z,2.65
2018-12-18T00:05:54.851Z,2.75
2018-12-18T00:08:41.842Z,2.67
2018-12-18T00:11:19.213Z,2.69
2018-12-18T00:14:08.207Z,2.74
2018-12-18T00:16:43.254Z,2.78
2018-12-18T00:19:21.032Z,2.78
2018-12-18T00:22:01.590Z,2.78
2018-12-18T00:24:42.657Z,2.94
2018-12-18T00:27:25.506Z,2.87
2018-12-18T00:30:13.111Z,2.88
2018-12-18T00:32:48.162Z,2.87
2018-12-18T00:35:37.731Z,2.89
2018-12-18T00:38:12.243Z,2.82
2018-12-18T00:40:46.786Z,2.76
2018-12-18T00:43:27.163Z,2.63
2018-12-18T00:46:05.542Z,2.46
2018-12-18T00:48:42.222Z,2.44
2018-12-18T00:51:16.926Z,2.45
2018-12-18T00:53:51.393Z,2.49
2018-12-18T00:56:41.570Z,2.53
2018-12-18T01:02:27.090Z,2.57
2018-12-18T01:08:13.357Z,2.52
2018-12-18T01:10:51.566Z,2.52
2018-12-18T01:13:32.467Z,2.54
2018-12-18T01:16:27.343Z,2.55
2018-12-18T01:19:24.435Z,2.48
2018-12-18T01:22:10.953Z,2.49
2018-12-18T01:24:45.754Z,2.33
2018-12-18T01:27:27.070Z,2.35
2018-12-18T01:30:01.539Z,2.31
2018-12-18T01:32:53.071Z,2.27
2018-12-18T01:35:33.650Z,2.15
2018-12-18T01:38:14.680Z,2.19
2018-12-18T01:41:01.307Z,2.20
2018-12-18T01:43:41.098Z,2.16
2018-12-18T01:46:15.758Z,2.16
2018-12-18T01:48:53.897Z,1.96
2018-12-18T01:51:29.022Z,1.87
2018-12-18T01:54:04.518Z,1.87
2018-12-18T01:56:42.455Z,1.73
2018-12-18T01:59:23.494Z,1.74
2018-12-18T02:02:01.570Z,1.55
2018-12-18T02:04:42.410Z,1.50
2018-12-18T02:07:23.515Z,1.55
2018-12-18T02:10:03.456Z,1.43
2018-12-18T02:12:44.071Z,1.48
2018-12-18T02:15:18.549Z,1.51
2018-12-18T02:17:58.902Z,1.56
2018-12-18T02:20:36.475Z,1.50
2018-12-18T02:23:13.222Z,1.54
2018-12-18T02:28:18.330Z,1.32
2018-12-18T02:30:56.590Z,1.26
2018-12-18T02:33:37.362Z,1.17
2018-12-18T02:36:16.198Z,1.28
2018-12-18T02:38:57.977Z,1.28
2018-12-18T02:41:35.786Z,1.24
2018-12-18T02:44:10.222Z,1.25
2018-12-18T02:46:46.603Z,1.27
2018-12-18T02:49:28.557Z,1.26
2018-12-18T02:52:07.338Z,1.18
2018-12-18T02:54:47.420Z,0.88
2018-12-18T02:57:25.955Z,0.96
2018-12-18T03:00:04.605Z,0.94
2018-12-18T03:02:43.164Z,0.82
2018-12-18T03:05:23.251Z,0.76
2018-12-18T03:08:01.339Z,0.76
2018-12-18T03:10:37.575Z,0.72
2018-12-18T03:13:16.710Z,0.68
2018-12-18T03:15:58.959Z,0.70
2018-12-18T03:18:35.227Z,0.60
2018-12-18T03:21:13.742Z,0.63
2018-12-18T03:23:49.983Z,0.65
2018-12-18T03:26:30.264Z,0.61
2018-12-18T03:29:11.826Z,0.69
2018-12-18T03:31:54.539Z,0.73
2018-12-18T03:34:33.606Z,0.70
2018-12-18T03:37:14.420Z,0.71
2018-12-18T03:39:55.187Z,0.72
2018-12-18T03:42:33.624Z,0.67
2018-12-18T03:45:12.106Z,0.69
2018-12-18T03:47:46.762Z,0.56
2018-12-18T03:50:22.895Z,0.52
2018-12-18T03:52:58.273Z,0.38
2018-12-18T03:55:36.690Z,0.30
2018-12-18T03:58:17.873Z,0.23
2018-12-18T04:00:55.570Z,0.27
2018-12-18T04:03:34.284Z,0.22
2018-12-18T04:06:13.455Z,0.20
2018-12-18T04:08:54.247Z,0.34
2018-12-18T04:11:28.694Z,0.41
2018-12-18T04:14:06.539Z,0.45
2018-12-18T04:16:46.838Z,0.48
2018-12-18T04:19:26.897Z,0.65
2018-12-18T04:22:04.749Z,0.63
2018-12-18T04:24:47.815Z,0.58
2018-12-18T04:27:25.874Z,0.64
2018-12-18T04:30:07.574Z,0.76
2018-12-18T04:32:49.781Z,0.77
2018-12-18T04:35:32.808Z,0.74
2018-12-18T04:38:08.526Z,0.77
2018-12-18T04:40:47.562Z,0.85
2018-12-18T04:43:24.740Z,0.95
2018-12-18T04:46:03.876Z,1.00
2018-12-18T04:48:45.831Z,0.97
2018-12-18T04:51:22.370Z,0.82
2018-12-18T04:54:02.000Z,0.62
2018-12-18T04:56:43.187Z,0.54
2018-12-18T04:59:18.916Z,0.63
2018-12-18T05:02:01.039Z,0.69
2018-12-18T05:04:38.554Z,0.73
2018-12-18T05:07:14.268Z,0.76
2018-12-18T05:09:57.636Z,0.64
2018-12-18T05:12:38.328Z,0.68
2018-12-18T05:15:17.457Z,0.68
2018-12-18T05:17:56.318Z,0.65
2018-12-18T05:20:49.062Z,0.62
2018-12-18T05:23:23.467Z,0.59
2018-12-18T05:26:16.040Z,0.55
2018-12-18T05:28:58.847Z,0.55
2018-12-18T05:31:40.584Z,0.54
2018-12-18T05:34:15.239Z,0.54
2018-12-18T05:36:53.006Z,0.51
2018-12-18T05:39:34.018Z,0.59
2018-12-18T05:42:13.106Z,0.67
2018-12-18T05:44:53.714Z,0.69
2018-12-18T05:47:44.790Z,0.59
2018-12-18T05:50:23.546Z,0.51
2018-12-18T05:52:59.659Z,0.52
2018-12-18T05:55:39.853Z,0.53
2018-12-18T05:58:14.364Z,0.54
2018-12-18T06:01:12.755Z,0.44
2018-12-18T06:03:53.270Z,0.39
2018-12-18T06:06:32.406Z,0.36
2018-12-18T06:09:08.258Z,0.32
2018-12-18T06:11:46.068Z,0.31
2018-12-18T06:14:27.158Z,0.33
2018-12-18T06:17:01.991Z,0.30
2018-12-18T06:19:36.522Z,0.23
2018-12-18T06:22:20.076Z,0.12
2018-12-18T06:24:57.743Z,0.07
2018-12-18T06:27:32.154Z,-0.04
2018-12-18T06:30:08.455Z,-0.02
2018-12-18T06:32:42.944Z,-0.09
2018-12-18T06:35:18.022Z,-0.02
2018-12-18T06:37:53.292Z,-0.10
2018-12-18T06:40:35.572Z,-0.23
2018-12-18T06:43:17.427Z,-0.20
2018-12-18T06:45:57.620Z,-0.22
2018-12-18T06:48:46.831Z,-0.18
2018-12-18T06:51:21.291Z,-0.32
2018-12-18T06:54:01.375Z,-0.29
2018-12-18T06:56:38.915Z,-0.34
2018-12-18T06:59:19.645Z,-0.38
2018-12-18T07:01:59.013Z,-0.40
2018-12-18T07:04:35.711Z,-0.33
2018-12-18T07:07:10.529Z,-0.37
2018-12-18T07:09:50.610Z,-0.39
2018-12-18T07:12:25.920Z,-0.28
2018-12-18T07:17:57.494Z,-0.33
2018-12-18T07:20:35.974Z,-0.32
2018-12-18T07:23:28.662Z,-0.27
2018-12-18T07:26:19.382Z,-0.34
2018-12-18T07:31:50.362Z,-0.26
2018-12-18T07:34:25.104Z,-0.21
2018-12-18T07:37:05.724Z,-0.18
2018-12-18T07:39:48.806Z,-0.17
2018-12-18T07:42:23.434Z,-0.01
2018-12-18T07:47:54.347Z,0.35
2018-12-18T07:50:28.754Z,0.43
2018-12-18T07:53:04.003Z,0.28
2018-12-18T07:55:39.180Z,0.25
2018-12-18T07:58:14.171Z,0.27
2018-12-18T08:00:54.981Z,0.30
2018-12-18T08:03:35.705Z,0.38
2018-12-18T08:09:19.063Z,0.32
2018-12-18T08:11:53.986Z,0.36
2018-12-18T08:14:28.483Z,0.36
2018-12-18T08:17:03.872Z,0.45
2018-12-18T08:19:38.348Z,0.35
2018-12-18T08:22:19.290Z,0.40
2018-12-18T08:25:01.070Z,0.43
2018-12-18T08:27:40.548Z,0.52
2018-12-18T08:30:18.878Z,0.58
2018-12-18T08:32:56.966Z,0.68
2018-12-18T08:35:36.640Z,0.74
2018-12-18T08:38:27.810Z,0.78
2018-12-18T08:41:05.897Z,0.68
2018-12-18T08:43:40.183Z,0.75
2018-12-18T08:46:16.500Z,0.68
2018-12-18T08:48:57.140Z,0.76
2018-12-18T08:51:37.705Z,1.00
2018-12-18T08:54:20.409Z,1.24
2018-12-18T08:56:59.715Z,1.48
2018-12-18T08:59:40.537Z,1.82
2018-12-18T09:02:16.066Z,1.97
2018-12-18T09:04:56.663Z,2.03
2018-12-18T09:07:31.082Z,2.14
2018-12-18T09:10:08.019Z,2.32
2018-12-18T09:12:44.111Z,2.55
2018-12-18T09:15:29.985Z,2.58
2018-12-18T09:18:08.771Z,2.64
2018-12-18T09:20:46.359Z,2.66
2018-12-18T09:23:22.339Z,2.72
2018-12-18T09:25:58.301Z,2.62
2018-12-18T09:28:36.990Z,2.71
2018-12-18T09:31:19.419Z,2.84
2018-12-18T09:33:55.846Z,2.96
2018-12-18T09:36:34.434Z,3.06
2018-12-18T09:39:15.122Z,3.30
2018-12-18T09:41:57.458Z,3.38
2018-12-18T09:44:39.866Z,3.45
2018-12-18T09:47:15.760Z,3.46
2018-12-18T09:49:56.679Z,3.34
2018-12-18T09:52:37.593Z,3.44
2018-12-18T09:55:16.026Z,3.51
2018-12-18T09:57:58.297Z,3.58
2018-12-18T10:00:36.609Z,3.63
2018-12-18T10:03:16.823Z,3.69
2018-12-18T10:05:56.486Z,3.78
2018-12-18T10:08:33.783Z,3.80
2018-12-18T10:11:12.460Z,3.88
2018-12-18T10:13:49.039Z,3.97
2018-12-18T10:16:31.752Z,3.99
2018-12-18T10:19:11.749Z,4.12
2018-12-18T10:21:50.437Z,4.12
2018-12-18T10:24:26.257Z,4.16
2018-12-18T10:27:07.040Z,4.19
2018-12-18T10:29:41.945Z,4.28
2018-12-18T10:32:22.438Z,4.33
2018-12-18T10:35:04.527Z,4.35
2018-12-18T10:37:42.835Z,4.18
2018-12-18T10:40:21.524Z,4.27
2018-12-18T10:43:02.442Z,4.30
2018-12-18T10:45:38.527Z,4.31
2018-12-18T10:48:15.075Z,4.29
2018-12-18T10:50:54.358Z,4.28
2018-12-18T10:53:30.010Z,4.33
2018-12-18T10:56:09.119Z,4.27
2018-12-18T10:58:49.452Z,4.28
2018-12-18T11:01:36.286Z,4.34
2018-12-18T11:04:12.106Z,4.28
2018-12-18T11:06:47.374Z,4.28
2018-12-18T11:09:29.411Z,4.32
2018-12-18T11:12:05.650Z,4.28
2018-12-18T11:14:51.715Z,4.22
2018-12-18T11:17:32.712Z,4.25
2018-12-18T11:20:09.332Z,4.29
2018-12-18T11:22:50.620Z,4.28
2018-12-18T11:25:29.122Z,4.27
2018-12-18T11:28:11.793Z,4.36
2018-12-18T11:30:56.769Z,4.30
2018-12-18T11:33:38.363Z,4.39
2018-12-18T11:36:17.571Z,4.41
2018-12-18T11:38:58.495Z,4.41
2018-12-18T11:41:37.902Z,4.45
2018-12-18T11:44:14.582Z,4.54
2018-12-18T11:46:56.025Z,4.56
2018-12-18T11:49:39.971Z,4.54
2018-12-18T11:52:15.057Z,4.54
2018-12-18T11:54:52.553Z,4.38
2018-12-18T11:57:29.649Z,4.31
2018-12-18T12:00:08.740Z,4.36
2018-12-18T12:02:50.016Z,4.24
2018-12-18T12:05:25.638Z,4.29
2018-12-18T12:08:06.630Z,4.31
2018-12-18T12:10:53.504Z,4.23
2018-12-18T12:16:30.822Z,4.32
2018-12-18T12:19:12.684Z,4.44
2018-12-18T12:21:50.842Z,4.60
2018-12-18T12:24:31.941Z,4.71
2018-12-18T12:27:17.544Z,4.61
2018-12-18T12:29:55.996Z,4.42
2018-12-18T12:32:30.767Z,4.58
2018-12-18T12:35:06.282Z,4.76
2018-12-18T12:37:40.695Z,4.92
2018-12-18T12:40:15.319Z,4.79
2018-12-18T12:42:49.973Z,4.75
2018-12-18T12:45:24.826Z,4.91
2018-12-18T12:48:00.418Z,4.96
2018-12-18T12:50:35.735Z,5.14
2018-12-18T12:53:10.783Z,5.24
2018-12-18T12:55:45.602Z,5.43
2018-12-18T12:58:42.766Z,5.24
2018-12-18T13:01:33.895Z,5.24
2018-12-18T13:04:09.015Z,5.47
2018-12-18T13:06:43.779Z,5.48
2018-12-18T13:09:18.583Z,5.25
2018-12-18T13:11:53.635Z,5.13
2018-12-18T13:14:32.195Z,5.28
2018-12-18T13:17:07.702Z,5.38
2018-12-18T13:19:42.194Z,5.35
2018-12-18T13:22:16.830Z,5.29
2018-12-18T13:24:51.783Z,5.18
2018-12-18T13:27:26.616Z,5.18
2018-12-18T13:30:02.254Z,5.17
2018-12-18T13:32:36.971Z,5.19
2018-12-18T13:35:11.826Z,5.04
2018-12-18T13:37:46.211Z,5.05
2018-12-18T13:40:21.107Z,4.87
2018-12-18T13:42:55.787Z,4.87
2018-12-18T13:45:30.263Z,4.82
2018-12-18T13:48:05.704Z,4.73
2018-12-18T13:50:40.200Z,4.80
2018-12-18T13:53:15.486Z,4.89
2018-12-18T13:55:49.847Z,4.82
2018-12-18T13:58:25.036Z,4.66
2018-12-18T14:01:00.206Z,4.75
2018-12-18T14:03:35.018Z,4.71
2018-12-18T14:06:09.919Z,4.62
2018-12-18T14:08:44.395Z,4.56
2018-12-18T14:11:18.685Z,4.45
2018-12-18T14:13:53.314Z,4.27
2018-12-18T14:16:27.934Z,4.29
2018-12-18T14:19:02.261Z,4.13
2018-12-18T14:21:37.079Z,4.00
2018-12-18T14:24:11.345Z,3.99
2018-12-18T14:26:45.962Z,4.05
2018-12-18T14:29:20.698Z,4.05
2018-12-18T14:31:55.817Z,3.94
2018-12-18T14:34:30.646Z,3.91
2018-12-18T14:37:05.654Z,3.80
2018-12-18T14:39:40.294Z,3.80
2018-12-18T14:42:14.786Z,3.84
2018-12-18T14:44:49.187Z,3.64
2018-12-18T14:47:23.590Z,3.47
2018-12-18T14:49:58.317Z,3.58
2018-12-18T14:52:33.284Z,3.53
2018-12-18T14:55:08.527Z,3.52
2018-12-18T14:57:43.663Z,3.57
2018-12-18T15:00:18.568Z,3.45
2018-12-18T15:02:53.545Z,3.42
2018-12-18T15:05:28.008Z,3.22
2018-12-18T15:08:02.635Z,3.34
2018-12-18T15:10:37.777Z,3.30
2018-12-18T15:13:12.478Z,3.16
2018-12-18T15:15:47.307Z,3.21
2018-12-18T15:18:23.263Z,3.30
2018-12-18T15:20:58.667Z,3.11
2018-12-18T15:23:33.255Z,3.03
2018-12-18T15:26:07.845Z,2.96
2018-12-18T15:28:42.688Z,2.99
2018-12-18T15:31:17.612Z,2.84
2018-12-18T15:33:52.690Z,2.78
2018-12-18T15:36:29.199Z,2.54
2018-12-18T15:39:06.727Z,2.42
2018-12-18T15:41:41.420Z,2.22
2018-12-18T15:44:16.118Z,2.26
2018-12-18T15:47:00.270Z,2.24
2018-12-18T15:49:34.718Z,2.34
2018-12-18T15:52:09.113Z,2.22
2018-12-18T15:54:43.462Z,2.26
2018-12-18T15:57:19.473Z,2.01
2018-12-18T15:59:54.442Z,1.96
2018-12-18T16:02:29.151Z,1.97
2018-12-18T16:05:04.750Z,1.90
2018-12-18T16:07:39.294Z,1.77
2018-12-18T16:10:14.206Z,1.72
2018-12-18T16:12:48.690Z,1.71
2018-12-18T16:15:24.007Z,1.82
2018-12-18T16:17:58.427Z,1.90
2018-12-18T16:20:33.041Z,1.75
2018-12-18T16:23:07.897Z,1.81
2018-12-18T16:25:42.776Z,1.86
2018-12-18T16:28:17.113Z,1.85
2018-12-18T16:30:51.846Z,1.78
2018-12-18T16:33:26.204Z,1.71
2018-12-18T16:36:00.918Z,1.66
2018-12-18T16:38:35.641Z,1.50
2018-12-18T16:41:15.933Z,1.63
2018-12-18T16:44:13.223Z,1.42
2018-12-18T16:49:48.034Z,1.37
2018-12-18T16:52:35.520Z,1.28
2018-12-18T16:55:13.303Z,1.28
2018-12-18T17:00:50.190Z,1.26
2018-12-18T17:03:46.825Z,1.37
2018-12-18T17:06:21.540Z,1.31
2018-12-18T17:12:02.684Z,1.19
2018-12-18T17:20:32.807Z,0.86
2018-12-18T17:23:13.282Z,0.93
2018-12-18T17:25:54.161Z,0.81
2018-12-18T17:28:40.979Z,0.85
2018-12-18T17:31:21.163Z,0.90
2018-12-18T17:34:17.426Z,1.03
2018-12-18T17:36:55.699Z,1.07
2018-12-18T17:39:38.368Z,1.09
2018-12-18T17:45:09.955Z,1.30
2018-12-18T17:47:47.618Z,1.21
2018-12-18T17:50:22.586Z,1.24
2018-12-18T17:52:57.610Z,1.28
2018-12-18T17:55:31.903Z,1.40
2018-12-18T17:58:06.898Z,1.41
2018-12-18T18:00:44.683Z,1.26
2018-12-18T18:03:19.237Z,1.34
2018-12-18T18:05:53.868Z,1.42
2018-12-18T18:08:34.228Z,1.42
2018-12-18T18:11:10.426Z,1.33
2018-12-18T18:14:00.702Z,1.32
2018-12-18T18:16:35.833Z,1.32
2018-12-18T18:22:24.439Z,1.45
2018-12-18T18:24:59.066Z,1.28
2018-12-18T18:27:33.610Z,1.33
2018-12-18T18:30:09.075Z,1.29
2018-12-18T18:32:43.740Z,1.21
2018-12-18T18:35:18.986Z,1.19
2018-12-18T18:37:53.321Z,1.32
2018-12-18T18:40:28.066Z,1.19
2018-12-18T18:43:02.935Z,1.22
2018-12-18T18:45:37.853Z,1.29
2018-12-18T18:48:12.509Z,1.33
2018-12-18T18:50:46.871Z,1.36
2018-12-18T18:53:21.151Z,1.31
2018-12-18T18:55:55.782Z,1.27
2018-12-18T18:58:30.472Z,1.40
2018-12-18T19:01:05.396Z,1.50
2018-12-18T19:03:41.174Z,1.44
2018-12-18T19:06:15.854Z,1.45
2018-12-18T19:08:50.311Z,1.40
2018-12-18T19:11:25.061Z,1.47
2018-12-18T19:13:59.477Z,1.53
2018-12-18T19:16:33.762Z,1.30
2018-12-18T19:19:08.175Z,1.27
2018-12-18T19:21:42.624Z,1.18
2018-12-18T19:24:17.154Z,1.24
2018-12-18T19:26:52.377Z,1.11
2018-12-18T19:29:27.102Z,1.15
2018-12-18T19:32:02.098Z,1.18
2018-12-18T19:34:36.576Z,1.35
2018-12-18T19:37:10.932Z,1.18
2018-12-18T19:39:46.048Z,1.01
2018-12-18T19:42:20.740Z,0.99
2018-12-18T19:44:55.795Z,0.89
2018-12-18T19:47:30.171Z,0.83
2018-12-18T19:50:05.834Z,0.71
2018-12-18T19:52:40.159Z,0.70
2018-12-18T19:55:15.559Z,0.71
2018-12-18T19:57:50.048Z,0.72
2018-12-18T20:00:24.455Z,0.81
2018-12-18T20:02:59.170Z,0.72
2018-12-18T20:05:33.899Z,0.57
2018-12-18T20:08:10.199Z,0.52
2018-12-18T20:10:45.063Z,0.56
2018-12-18T20:13:19.392Z,0.56
2018-12-18T20:15:53.848Z,0.51
2018-12-18T20:18:30.450Z,0.58
2018-12-18T20:24:06.971Z,0.52
2018-12-18T20:26:42.524Z,0.49
2018-12-18T20:29:17.214Z,0.45
2018-12-18T20:31:51.714Z,0.44
2018-12-18T20:34:44.760Z,0.63
2018-12-18T20:37:19.962Z,0.68
2018-12-18T20:40:01.508Z,0.60
2018-12-18T20:42:37.179Z,0.52
2018-12-18T20:45:11.991Z,0.64
2018-12-18T20:48:03.767Z,0.64
2018-12-18T20:50:39.047Z,0.72
2018-12-18T20:55:43.394Z,0.57
2018-12-18T20:58:18.158Z,0.53
2018-12-18T21:00:54.319Z,0.51
2018-12-18T21:03:28.746Z,0.49
2018-12-18T21:06:25.315Z,0.55
2018-12-18T21:11:57.336Z,0.42
2018-12-18T21:17:28.148Z,0.51
2018-12-18T21:20:02.703Z,0.51
2018-12-18T21:22:37.606Z,0.49
2018-12-18T21:25:11.925Z,0.42
2018-12-18T21:27:46.878Z,0.28
2018-12-18T21:30:21.174Z,0.33
2018-12-18T21:32:55.535Z,0.33
2018-12-18T21:35:30.660Z,0.34
2018-12-18T21:41:02.989Z,0.47
2018-12-18T21:43:37.663Z,0.47
2018-12-18T21:46:12.637Z,0.56
2018-12-18T21:48:47.271Z,0.28
2018-12-18T21:51:23.031Z,0.27
2018-12-18T21:54:04.272Z,0.24
2018-12-18T21:56:39.013Z,0.02
2018-12-18T21:59:13.697Z,0.04
2018-12-18T22:01:48.018Z,-0.12
2018-12-18T22:04:23.014Z,-0.19
2018-12-18T22:07:03.190Z,-0.06
2018-12-18T22:09:56.571Z,0.17
2018-12-18T22:12:34.203Z,0.20
2018-12-18T22:15:24.971Z,0.10
2018-12-18T22:18:05.525Z,0.24
2018-12-18T22:20:48.397Z,0.32
2018-12-18T22:29:15.547Z,0.11
2018-12-18T22:31:50.733Z,0.11
2018-12-18T22:34:26.303Z,0.21
2018-12-18T22:40:01.898Z,-0.03
2018-12-18T22:45:40.583Z,-0.44
2018-12-18T22:48:15.356Z,-0.50
2018-12-18T22:50:49.982Z,-0.09
2018-12-18T22:53:24.923Z,-0.25
2018-12-18T22:55:59.487Z,-0.18
2018-12-18T22:58:34.391Z,-0.10
2018-12-18T23:01:18.091Z,0.07
2018-12-18T23:03:52.821Z,0.01
2018-12-18T23:06:27.472Z,-0.04
2018-12-18T23:09:04.107Z,0.03
2018-12-18T23:11:38.514Z,-0.02
2018-12-18T23:14:13.169Z,-0.01
2018-12-18T23:16:48.261Z,-0.11
2018-12-18T23:19:24.004Z,0.09
2018-12-18T23:21:59.145Z,-0.03
2018-12-18T23:24:33.491Z,0.02
2018-12-18T23:27:07.818Z,-0.19
2018-12-18T23:29:42.191Z,-0.17
2018-12-18T23:32:16.749Z,-0.11
2018-12-18T23:34:51.379Z,-0.07
2018-12-18T23:37:26.143Z,-0.09
2018-12-18T23:40:01.198Z,-0.07
2018-12-18T23:42:36.035Z,-0.09
2018-12-18T23:45:11.722Z,-0.07
2018-12-18T23:47:46.800Z,-0.16
2018-12-18T23:50:21.629Z,-0.17
2018-12-18T23:52:55.954Z,-0.31
2018-12-18T23:55:30.498Z,-0.39
2018-12-18T23:58:05.302Z,-0.37
